sensor_id;sensor_type;location;lat;lon;timestamp;P1;durP1;ratioP1;P2;durP2;ratioP2
11328;SDS011;5719;42.714;23.732;2023-08-06T00:02:10;5.75;;;3.13;;
11328;SDS011;5719;42.714;23.732;2023-08-06T00:04:37;6.18;;;3.33;;
11328;SDS011;5719;42.714;23.732;2023-08-06T00:07:04;5.55;;;3.45;;
11328;SDS011;5719;42.714;23.732;2023-08-06T00:09:31;8.40;;;2.90;;
11328;SDS011;5719;42.714;23.732;2023-08-06T00:11:58;6.38;;;3.22;;
11328;SDS011;5719;42.714;23.732;2023-08-06T00:14:26;9.68;;;3.22;;
11328;SDS011;5719;42.714;23.732;2023-08-06T00:16:53;6.82;;;3.50;;
11328;SDS011;5719;42.714;23.732;2023-08-06T00:19:20;9.00;;;4.32;;
11328;SDS011;5719;42.714;23.732;2023-08-06T00:21:46;10.93;;;4.45;;
11328;SDS011;5719;42.714;23.732;2023-08-06T00:24:13;12.32;;;4.85;;
11328;SDS011;5719;42.714;23.732;2023-08-06T00:26:40;10.63;;;4.55;;
11328;SDS011;5719;42.714;23.732;2023-08-06T00:29:07;8.68;;;4.50;;
11328;SDS011;5719;42.714;23.732;2023-08-06T00:31:35;8.82;;;4.72;;
11328;SDS011;5719;42.714;23.732;2023-08-06T00:34:02;11.30;;;5.18;;
11328;SDS011;5719;42.714;23.732;2023-08-06T00:36:29;8.60;;;4.80;;
11328;SDS011;5719;42.714;23.732;2023-08-06T00:38:56;9.38;;;4.25;;
11328;SDS011;5719;42.714;23.732;2023-08-06T00:41:23;6.93;;;4.57;;
11328;SDS011;5719;42.714;23.732;2023-08-06T00:43:50;9.68;;;4.55;;
11328;SDS011;5719;42.714;23.732;2023-08-06T00:46:17;6.35;;;3.63;;
11328;SDS011;5719;42.714;23.732;2023-08-06T00:48:45;5.97;;;3.80;;
11328;SDS011;5719;42.714;23.732;2023-08-06T00:51:13;13.27;;;3.90;;
11328;SDS011;5719;42.714;23.732;2023-08-06T00:53:41;12.70;;;4.30;;
11328;SDS011;5719;42.714;23.732;2023-08-06T00:56:09;9.63;;;4.45;;
11328;SDS011;5719;42.714;23.732;2023-08-06T00:58:36;7.65;;;3.80;;
11328;SDS011;5719;42.714;23.732;2023-08-06T01:01:05;9.15;;;3.75;;
11328;SDS011;5719;42.714;23.732;2023-08-06T01:03:32;14.82;;;3.90;;
11328;SDS011;5719;42.714;23.732;2023-08-06T01:06:00;9.25;;;4.00;;
11328;SDS011;5719;42.714;23.732;2023-08-06T01:08:30;11.63;;;4.25;;
11328;SDS011;5719;42.714;23.732;2023-08-06T01:11:08;9.00;;;4.07;;
11328;SDS011;5719;42.714;23.732;2023-08-06T01:13:45;9.45;;;4.53;;
11328;SDS011;5719;42.714;23.732;2023-08-06T01:16:15;8.65;;;4.70;;
11328;SDS011;5719;42.714;23.732;2023-08-06T01:18:43;7.97;;;4.53;;
11328;SDS011;5719;42.714;23.732;2023-08-06T01:21:13;9.45;;;4.22;;
11328;SDS011;5719;42.714;23.732;2023-08-06T01:23:40;9.07;;;4.72;;
11328;SDS011;5719;42.714;23.732;2023-08-06T01:26:10;6.13;;;4.47;;
11328;SDS011;5719;42.714;23.732;2023-08-06T01:28:44;13.43;;;4.55;;
11328;SDS011;5719;42.714;23.732;2023-08-06T01:31:18;12.70;;;4.88;;
11328;SDS011;5719;42.714;23.732;2023-08-06T01:33:50;8.52;;;4.60;;
11328;SDS011;5719;42.714;23.732;2023-08-06T01:36:20;7.22;;;5.05;;
11328;SDS011;5719;42.714;23.732;2023-08-06T01:38:50;11.82;;;4.80;;
11328;SDS011;5719;42.714;23.732;2023-08-06T01:41:18;6.65;;;4.60;;
11328;SDS011;5719;42.714;23.732;2023-08-06T01:43:45;13.80;;;4.75;;
11328;SDS011;5719;42.714;23.732;2023-08-06T01:46:12;7.88;;;5.43;;
11328;SDS011;5719;42.714;23.732;2023-08-06T01:48:38;11.93;;;4.97;;
11328;SDS011;5719;42.714;23.732;2023-08-06T01:51:06;8.32;;;5.57;;
11328;SDS011;5719;42.714;23.732;2023-08-06T01:53:34;8.27;;;5.50;;
11328;SDS011;5719;42.714;23.732;2023-08-06T01:56:01;8.98;;;5.00;;
11328;SDS011;5719;42.714;23.732;2023-08-06T01:58:28;9.45;;;5.57;;
11328;SDS011;5719;42.714;23.732;2023-08-06T02:00:55;11.15;;;5.75;;
11328;SDS011;5719;42.714;23.732;2023-08-06T02:03:22;10.45;;;5.40;;
11328;SDS011;5719;42.714;23.732;2023-08-06T02:05:48;5.70;;;4.82;;
11328;SDS011;5719;42.714;23.732;2023-08-06T02:08:15;11.43;;;4.82;;
11328;SDS011;5719;42.714;23.732;2023-08-06T02:10:44;8.27;;;4.90;;
11328;SDS011;5719;42.714;23.732;2023-08-06T02:13:11;8.00;;;5.10;;
11328;SDS011;5719;42.714;23.732;2023-08-06T02:15:41;7.53;;;4.80;;
11328;SDS011;5719;42.714;23.732;2023-08-06T02:18:08;7.88;;;4.95;;
11328;SDS011;5719;42.714;23.732;2023-08-06T02:20:35;7.35;;;4.43;;
11328;SDS011;5719;42.714;23.732;2023-08-06T02:23:02;7.30;;;5.55;;
11328;SDS011;5719;42.714;23.732;2023-08-06T02:25:29;10.30;;;5.10;;
11328;SDS011;5719;42.714;23.732;2023-08-06T02:27:57;7.38;;;5.32;;
11328;SDS011;5719;42.714;23.732;2023-08-06T02:30:24;15.20;;;5.75;;
11328;SDS011;5719;42.714;23.732;2023-08-06T02:32:51;10.45;;;6.00;;
11328;SDS011;5719;42.714;23.732;2023-08-06T02:35:18;8.32;;;4.90;;
11328;SDS011;5719;42.714;23.732;2023-08-06T02:37:45;7.50;;;5.13;;
11328;SDS011;5719;42.714;23.732;2023-08-06T02:40:12;8.45;;;5.25;;
11328;SDS011;5719;42.714;23.732;2023-08-06T02:42:39;9.77;;;5.43;;
11328;SDS011;5719;42.714;23.732;2023-08-06T02:45:08;8.50;;;5.63;;
11328;SDS011;5719;42.714;23.732;2023-08-06T02:47:35;9.82;;;5.20;;
11328;SDS011;5719;42.714;23.732;2023-08-06T02:50:02;7.57;;;5.75;;
11328;SDS011;5719;42.714;23.732;2023-08-06T02:52:29;9.07;;;5.25;;
11328;SDS011;5719;42.714;23.732;2023-08-06T02:54:55;9.30;;;5.78;;
11328;SDS011;5719;42.714;23.732;2023-08-06T02:57:25;13.45;;;5.22;;
11328;SDS011;5719;42.714;23.732;2023-08-06T02:59:51;7.70;;;5.53;;
11328;SDS011;5719;42.714;23.732;2023-08-06T03:02:20;9.43;;;5.03;;
11328;SDS011;5719;42.714;23.732;2023-08-06T03:17:40;6.43;;;5.18;;
11328;SDS011;5719;42.714;23.732;2023-08-06T03:20:07;6.47;;;5.82;;
11328;SDS011;5719;42.714;23.732;2023-08-06T03:22:34;12.30;;;5.63;;
11328;SDS011;5719;42.714;23.732;2023-08-06T03:25:01;8.52;;;5.35;;
11328;SDS011;5719;42.714;23.732;2023-08-06T03:27:28;7.38;;;5.53;;
11328;SDS011;5719;42.714;23.732;2023-08-06T03:29:55;7.72;;;6.32;;
11328;SDS011;5719;42.714;23.732;2023-08-06T03:32:22;9.30;;;6.03;;
11328;SDS011;5719;42.714;23.732;2023-08-06T03:34:50;8.23;;;6.13;;
11328;SDS011;5719;42.714;23.732;2023-08-06T03:37:17;8.00;;;6.07;;
11328;SDS011;5719;42.714;23.732;2023-08-06T03:39:44;9.02;;;6.28;;
11328;SDS011;5719;42.714;23.732;2023-08-06T03:42:11;8.13;;;5.40;;
11328;SDS011;5719;42.714;23.732;2023-08-06T03:44:38;7.93;;;5.57;;
11328;SDS011;5719;42.714;23.732;2023-08-06T03:47:05;13.45;;;6.53;;
11328;SDS011;5719;42.714;23.732;2023-08-06T03:49:32;20.45;;;7.47;;
11328;SDS011;5719;42.714;23.732;2023-08-06T03:52:00;21.00;;;10.27;;
11328;SDS011;5719;42.714;23.732;2023-08-06T03:54:27;14.18;;;6.25;;
11328;SDS011;5719;42.714;23.732;2023-08-06T03:56:55;13.60;;;7.18;;
11328;SDS011;5719;42.714;23.732;2023-08-06T03:59:22;9.15;;;5.57;;
11328;SDS011;5719;42.714;23.732;2023-08-06T04:01:49;9.32;;;5.68;;
11328;SDS011;5719;42.714;23.732;2023-08-06T04:04:16;9.77;;;6.10;;
11328;SDS011;5719;42.714;23.732;2023-08-06T04:06:43;16.50;;;6.72;;
11328;SDS011;5719;42.714;23.732;2023-08-06T04:09:11;18.65;;;7.65;;
11328;SDS011;5719;42.714;23.732;2023-08-06T04:11:38;11.57;;;6.03;;
11328;SDS011;5719;42.714;23.732;2023-08-06T04:14:05;9.48;;;5.72;;
11328;SDS011;5719;42.714;23.732;2023-08-06T04:16:32;16.17;;;6.60;;
11328;SDS011;5719;42.714;23.732;2023-08-06T04:18:58;12.23;;;6.05;;
11328;SDS011;5719;42.714;23.732;2023-08-06T04:21:25;12.80;;;6.38;;
11328;SDS011;5719;42.714;23.732;2023-08-06T04:23:52;8.15;;;5.53;;
11328;SDS011;5719;42.714;23.732;2023-08-06T04:26:20;10.60;;;5.57;;
11328;SDS011;5719;42.714;23.732;2023-08-06T04:28:47;12.40;;;4.88;;
11328;SDS011;5719;42.714;23.732;2023-08-06T04:31:15;10.63;;;5.75;;
11328;SDS011;5719;42.714;23.732;2023-08-06T04:33:42;11.90;;;5.75;;
11328;SDS011;5719;42.714;23.732;2023-08-06T04:36:08;9.05;;;5.78;;
11328;SDS011;5719;42.714;23.732;2023-08-06T04:38:35;10.65;;;5.18;;
11328;SDS011;5719;42.714;23.732;2023-08-06T04:41:03;9.15;;;4.93;;
11328;SDS011;5719;42.714;23.732;2023-08-06T04:43:31;8.48;;;5.50;;
11328;SDS011;5719;42.714;23.732;2023-08-06T04:45:58;7.72;;;5.28;;
11328;SDS011;5719;42.714;23.732;2023-08-06T04:48:25;8.13;;;5.47;;
11328;SDS011;5719;42.714;23.732;2023-08-06T04:50:52;8.70;;;5.60;;
11328;SDS011;5719;42.714;23.732;2023-08-06T04:53:19;4.90;;;4.30;;
11328;SDS011;5719;42.714;23.732;2023-08-06T04:55:47;4.72;;;4.30;;
11328;SDS011;5719;42.714;23.732;2023-08-06T04:58:13;5.28;;;4.22;;
11328;SDS011;5719;42.714;23.732;2023-08-06T05:00:42;8.32;;;4.47;;
11328;SDS011;5719;42.714;23.732;2023-08-06T05:03:09;5.03;;;4.45;;
11328;SDS011;5719;42.714;23.732;2023-08-06T05:05:36;7.68;;;5.60;;
11328;SDS011;5719;42.714;23.732;2023-08-06T05:08:03;6.80;;;6.05;;
11328;SDS011;5719;42.714;23.732;2023-08-06T05:10:30;5.63;;;5.03;;
11328;SDS011;5719;42.714;23.732;2023-08-06T05:12:57;5.40;;;4.90;;
11328;SDS011;5719;42.714;23.732;2023-08-06T05:15:24;9.32;;;4.75;;
11328;SDS011;5719;42.714;23.732;2023-08-06T05:17:52;10.75;;;6.22;;
11328;SDS011;5719;42.714;23.732;2023-08-06T05:20:20;8.05;;;5.68;;
11328;SDS011;5719;42.714;23.732;2023-08-06T05:22:47;7.50;;;4.97;;
11328;SDS011;5719;42.714;23.732;2023-08-06T05:25:14;8.27;;;5.28;;
11328;SDS011;5719;42.714;23.732;2023-08-06T05:27:41;6.45;;;4.60;;
11328;SDS011;5719;42.714;23.732;2023-08-06T05:30:09;6.93;;;4.50;;
11328;SDS011;5719;42.714;23.732;2023-08-06T05:32:37;10.32;;;4.72;;
11328;SDS011;5719;42.714;23.732;2023-08-06T05:35:06;5.93;;;4.25;;
11328;SDS011;5719;42.714;23.732;2023-08-06T05:37:33;6.05;;;4.40;;
11328;SDS011;5719;42.714;23.732;2023-08-06T05:40:00;4.50;;;3.97;;
11328;SDS011;5719;42.714;23.732;2023-08-06T05:42:27;4.65;;;4.00;;
11328;SDS011;5719;42.714;23.732;2023-08-06T05:44:54;7.43;;;4.78;;
11328;SDS011;5719;42.714;23.732;2023-08-06T05:47:21;5.10;;;4.60;;
11328;SDS011;5719;42.714;23.732;2023-08-06T05:49:48;5.75;;;4.68;;
11328;SDS011;5719;42.714;23.732;2023-08-06T05:52:16;4.45;;;3.75;;
11328;SDS011;5719;42.714;23.732;2023-08-06T05:54:48;9.25;;;3.67;;
11328;SDS011;5719;42.714;23.732;2023-08-06T05:57:15;9.10;;;4.00;;
11328;SDS011;5719;42.714;23.732;2023-08-06T05:59:43;4.05;;;3.65;;
11328;SDS011;5719;42.714;23.732;2023-08-06T06:02:09;4.90;;;4.40;;
11328;SDS011;5719;42.714;23.732;2023-08-06T06:04:37;4.40;;;4.00;;
11328;SDS011;5719;42.714;23.732;2023-08-06T06:07:07;5.68;;;4.25;;
11328;SDS011;5719;42.714;23.732;2023-08-06T06:09:35;4.10;;;3.80;;
11328;SDS011;5719;42.714;23.732;2023-08-06T06:12:02;4.28;;;3.92;;
11328;SDS011;5719;42.714;23.732;2023-08-06T06:14:30;4.18;;;3.63;;
11328;SDS011;5719;42.714;23.732;2023-08-06T06:16:57;4.85;;;3.33;;
11328;SDS011;5719;42.714;23.732;2023-08-06T06:19:24;4.03;;;3.70;;
11328;SDS011;5719;42.714;23.732;2023-08-06T06:21:51;4.10;;;3.80;;
11328;SDS011;5719;42.714;23.732;2023-08-06T06:24:18;4.50;;;4.10;;
11328;SDS011;5719;42.714;23.732;2023-08-06T06:26:46;4.50;;;4.15;;
11328;SDS011;5719;42.714;23.732;2023-08-06T06:29:13;5.60;;;4.97;;
11328;SDS011;5719;42.714;23.732;2023-08-06T06:31:40;4.95;;;4.25;;
11328;SDS011;5719;42.714;23.732;2023-08-06T06:34:07;4.93;;;4.50;;
11328;SDS011;5719;42.714;23.732;2023-08-06T06:36:35;6.07;;;4.03;;
11328;SDS011;5719;42.714;23.732;2023-08-06T06:53:15;11.23;;;5.35;;
11328;SDS011;5719;42.714;23.732;2023-08-06T06:55:43;10.05;;;5.10;;
11328;SDS011;5719;42.714;23.732;2023-08-06T06:58:09;8.07;;;5.60;;
11328;SDS011;5719;42.714;23.732;2023-08-06T07:00:37;4.78;;;4.28;;
11328;SDS011;5719;42.714;23.732;2023-08-06T07:03:04;4.07;;;3.78;;
11328;SDS011;5719;42.714;23.732;2023-08-06T07:05:31;6.00;;;3.88;;
11328;SDS011;5719;42.714;23.732;2023-08-06T07:07:59;5.85;;;4.35;;
11328;SDS011;5719;42.714;23.732;2023-08-06T07:10:27;4.82;;;4.35;;
11328;SDS011;5719;42.714;23.732;2023-08-06T07:12:54;10.57;;;4.55;;
11328;SDS011;5719;42.714;23.732;2023-08-06T07:15:23;10.35;;;5.50;;
11328;SDS011;5719;42.714;23.732;2023-08-06T07:17:50;6.15;;;4.53;;
11328;SDS011;5719;42.714;23.732;2023-08-06T07:20:17;4.38;;;3.97;;
11328;SDS011;5719;42.714;23.732;2023-08-06T07:22:45;8.57;;;4.40;;
11328;SDS011;5719;42.714;23.732;2023-08-06T07:25:12;4.25;;;3.60;;
11328;SDS011;5719;42.714;23.732;2023-08-06T07:27:40;4.97;;;4.20;;
11328;SDS011;5719;42.714;23.732;2023-08-06T07:30:07;4.75;;;4.03;;
11328;SDS011;5719;42.714;23.732;2023-08-06T07:32:35;4.60;;;3.85;;
11328;SDS011;5719;42.714;23.732;2023-08-06T07:35:01;3.80;;;3.50;;
11328;SDS011;5719;42.714;23.732;2023-08-06T07:37:29;3.53;;;3.22;;
11328;SDS011;5719;42.714;23.732;2023-08-06T07:39:56;2.72;;;2.53;;
11328;SDS011;5719;42.714;23.732;2023-08-06T07:42:23;2.35;;;2.22;;
11328;SDS011;5719;42.714;23.732;2023-08-06T07:44:53;3.08;;;2.20;;
11328;SDS011;5719;42.714;23.732;2023-08-06T07:47:21;3.47;;;2.03;;
11328;SDS011;5719;42.714;23.732;2023-08-06T07:49:48;1.98;;;1.85;;
11328;SDS011;5719;42.714;23.732;2023-08-06T07:52:15;2.40;;;1.90;;
11328;SDS011;5719;42.714;23.732;2023-08-06T07:54:43;2.80;;;2.00;;
11328;SDS011;5719;42.714;23.732;2023-08-06T07:57:10;4.55;;;1.92;;
11328;SDS011;5719;42.714;23.732;2023-08-06T07:59:37;2.08;;;1.98;;
11328;SDS011;5719;42.714;23.732;2023-08-06T08:02:05;3.25;;;1.90;;
11328;SDS011;5719;42.714;23.732;2023-08-06T08:04:32;3.53;;;1.92;;
11328;SDS011;5719;42.714;23.732;2023-08-06T08:06:59;2.67;;;2.15;;
11328;SDS011;5719;42.714;23.732;2023-08-06T08:09:26;2.60;;;2.00;;
11328;SDS011;5719;42.714;23.732;2023-08-06T08:11:53;2.67;;;2.30;;
11328;SDS011;5719;42.714;23.732;2023-08-06T08:14:20;2.55;;;1.92;;
11328;SDS011;5719;42.714;23.732;2023-08-06T08:28:39;2.40;;;1.73;;
11328;SDS011;5719;42.714;23.732;2023-08-06T08:31:07;1.70;;;1.60;;
11328;SDS011;5719;42.714;23.732;2023-08-06T08:33:36;1.92;;;1.65;;
11328;SDS011;5719;42.714;23.732;2023-08-06T08:36:03;3.42;;;1.80;;
11328;SDS011;5719;42.714;23.732;2023-08-06T08:38:30;1.92;;;1.58;;
11328;SDS011;5719;42.714;23.732;2023-08-06T08:40:57;2.55;;;2.15;;
11328;SDS011;5719;42.714;23.732;2023-08-06T08:43:24;2.38;;;2.10;;
11328;SDS011;5719;42.714;23.732;2023-08-06T08:45:54;2.78;;;2.40;;
11328;SDS011;5719;42.714;23.732;2023-08-06T08:48:24;2.67;;;2.10;;
11328;SDS011;5719;42.714;23.732;2023-08-06T08:50:52;2.72;;;2.10;;
11328;SDS011;5719;42.714;23.732;2023-08-06T08:53:19;2.13;;;2.00;;
11328;SDS011;5719;42.714;23.732;2023-08-06T08:55:48;2.00;;;1.90;;
11328;SDS011;5719;42.714;23.732;2023-08-06T08:58:16;3.33;;;1.90;;
11328;SDS011;5719;42.714;23.732;2023-08-06T09:00:43;4.38;;;1.95;;
11328;SDS011;5719;42.714;23.732;2023-08-06T09:03:13;2.10;;;1.70;;
11328;SDS011;5719;42.714;23.732;2023-08-06T09:05:43;7.50;;;2.30;;
11328;SDS011;5719;42.714;23.732;2023-08-06T09:08:12;2.00;;;1.67;;
11328;SDS011;5719;42.714;23.732;2023-08-06T09:10:44;2.65;;;1.70;;
11328;SDS011;5719;42.714;23.732;2023-08-06T09:13:13;3.47;;;2.42;;
11328;SDS011;5719;42.714;23.732;2023-08-06T09:15:41;3.90;;;2.08;;
11328;SDS011;5719;42.714;23.732;2023-08-06T09:18:09;4.38;;;1.95;;
11328;SDS011;5719;42.714;23.732;2023-08-06T09:20:38;7.68;;;4.15;;
11328;SDS011;5719;42.714;23.732;2023-08-06T09:23:09;4.25;;;2.47;;
11328;SDS011;5719;42.714;23.732;2023-08-06T09:25:37;6.10;;;4.75;;
11328;SDS011;5719;42.714;23.732;2023-08-06T09:28:06;3.78;;;2.15;;
11328;SDS011;5719;42.714;23.732;2023-08-06T09:30:33;2.75;;;2.33;;
11328;SDS011;5719;42.714;23.732;2023-08-06T09:33:01;3.33;;;2.20;;
11328;SDS011;5719;42.714;23.732;2023-08-06T09:35:29;2.35;;;2.13;;
11328;SDS011;5719;42.714;23.732;2023-08-06T09:38:01;2.97;;;2.35;;
11328;SDS011;5719;42.714;23.732;2023-08-06T09:40:33;3.10;;;2.65;;
11328;SDS011;5719;42.714;23.732;2023-08-06T09:43:00;3.67;;;2.33;;
11328;SDS011;5719;42.714;23.732;2023-08-06T09:45:28;5.30;;;2.03;;
11328;SDS011;5719;42.714;23.732;2023-08-06T09:47:58;3.75;;;2.15;;
11328;SDS011;5719;42.714;23.732;2023-08-06T09:50:28;10.63;;;2.60;;
11328;SDS011;5719;42.714;23.732;2023-08-06T09:52:57;2.03;;;1.90;;
11328;SDS011;5719;42.714;23.732;2023-08-06T09:55:26;3.47;;;2.08;;
11328;SDS011;5719;42.714;23.732;2023-08-06T09:57:53;2.55;;;2.00;;
11328;SDS011;5719;42.714;23.732;2023-08-06T10:00:20;1.90;;;1.80;;
11328;SDS011;5719;42.714;23.732;2023-08-06T10:02:48;2.08;;;1.88;;
11328;SDS011;5719;42.714;23.732;2023-08-06T10:05:18;2.42;;;2.20;;
11328;SDS011;5719;42.714;23.732;2023-08-06T10:07:46;3.38;;;3.08;;
11328;SDS011;5719;42.714;23.732;2023-08-06T10:10:16;3.58;;;3.00;;
11328;SDS011;5719;42.714;23.732;2023-08-06T10:12:46;4.95;;;3.05;;
11328;SDS011;5719;42.714;23.732;2023-08-06T10:15:17;2.53;;;2.30;;
11328;SDS011;5719;42.714;23.732;2023-08-06T10:17:48;2.60;;;2.40;;
11328;SDS011;5719;42.714;23.732;2023-08-06T10:20:18;3.92;;;2.30;;
11328;SDS011;5719;42.714;23.732;2023-08-06T10:22:54;2.17;;;2.03;;
11328;SDS011;5719;42.714;23.732;2023-08-06T10:25:28;2.50;;;2.30;;
11328;SDS011;5719;42.714;23.732;2023-08-06T10:28:00;3.55;;;2.10;;
11328;SDS011;5719;42.714;23.732;2023-08-06T10:30:33;3.08;;;2.08;;
11328;SDS011;5719;42.714;23.732;2023-08-06T10:33:07;4.10;;;2.33;;
11328;SDS011;5719;42.714;23.732;2023-08-06T10:35:35;4.22;;;2.17;;
11328;SDS011;5719;42.714;23.732;2023-08-06T10:38:03;3.38;;;2.75;;
11328;SDS011;5719;42.714;23.732;2023-08-06T10:40:31;2.20;;;2.00;;
11328;SDS011;5719;42.714;23.732;2023-08-06T10:43:00;3.22;;;1.92;;
11328;SDS011;5719;42.714;23.732;2023-08-06T10:45:27;2.28;;;1.85;;
11328;SDS011;5719;42.714;23.732;2023-08-06T10:47:55;3.00;;;1.85;;
11328;SDS011;5719;42.714;23.732;2023-08-06T10:50:24;4.10;;;2.38;;
11328;SDS011;5719;42.714;23.732;2023-08-06T10:52:51;2.10;;;1.80;;
11328;SDS011;5719;42.714;23.732;2023-08-06T10:55:22;2.65;;;1.77;;
11328;SDS011;5719;42.714;23.732;2023-08-06T10:57:50;5.88;;;1.90;;
11328;SDS011;5719;42.714;23.732;2023-08-06T11:00:18;2.17;;;1.67;;
11328;SDS011;5719;42.714;23.732;2023-08-06T11:02:47;2.13;;;1.70;;
11328;SDS011;5719;42.714;23.732;2023-08-06T11:05:14;1.85;;;1.60;;
11328;SDS011;5719;42.714;23.732;2023-08-06T11:07:42;1.83;;;1.70;;
11328;SDS011;5719;42.714;23.732;2023-08-06T11:10:10;2.15;;;1.77;;
11328;SDS011;5719;42.714;23.732;2023-08-06T11:12:37;2.03;;;1.80;;
11328;SDS011;5719;42.714;23.732;2023-08-06T11:15:05;2.65;;;1.75;;
11328;SDS011;5719;42.714;23.732;2023-08-06T11:17:34;2.72;;;1.45;;
11328;SDS011;5719;42.714;23.732;2023-08-06T11:20:02;2.63;;;1.92;;
11328;SDS011;5719;42.714;23.732;2023-08-06T11:22:31;1.90;;;1.60;;
11328;SDS011;5719;42.714;23.732;2023-08-06T11:24:58;5.82;;;1.90;;
11328;SDS011;5719;42.714;23.732;2023-08-06T11:27:26;3.10;;;1.75;;
11328;SDS011;5719;42.714;23.732;2023-08-06T11:29:53;2.00;;;1.85;;
11328;SDS011;5719;42.714;23.732;2023-08-06T11:32:20;2.15;;;1.90;;
11328;SDS011;5719;42.714;23.732;2023-08-06T11:34:49;2.30;;;2.10;;
11328;SDS011;5719;42.714;23.732;2023-08-06T11:37:15;4.82;;;2.28;;
11328;SDS011;5719;42.714;23.732;2023-08-06T11:39:44;2.38;;;2.17;;
11328;SDS011;5719;42.714;23.732;2023-08-06T11:42:14;4.97;;;2.10;;
11328;SDS011;5719;42.714;23.732;2023-08-06T11:44:41;5.35;;;2.10;;
11328;SDS011;5719;42.714;23.732;2023-08-06T11:47:12;2.58;;;2.30;;
11328;SDS011;5719;42.714;23.732;2023-08-06T11:49:40;3.63;;;2.72;;
11328;SDS011;5719;42.714;23.732;2023-08-06T11:52:13;2.60;;;2.40;;
11328;SDS011;5719;42.714;23.732;2023-08-06T11:54:41;2.50;;;2.30;;
11328;SDS011;5719;42.714;23.732;2023-08-06T11:57:09;4.32;;;2.40;;
11328;SDS011;5719;42.714;23.732;2023-08-06T11:59:37;5.60;;;2.30;;
11328;SDS011;5719;42.714;23.732;2023-08-06T12:02:05;3.03;;;2.15;;
11328;SDS011;5719;42.714;23.732;2023-08-06T12:07:29;2.50;;;2.08;;
11328;SDS011;5719;42.714;23.732;2023-08-06T12:09:57;2.15;;;1.95;;
11328;SDS011;5719;42.714;23.732;2023-08-06T12:12:24;2.20;;;2.00;;
11328;SDS011;5719;42.714;23.732;2023-08-06T12:28:12;2.53;;;2.33;;
11328;SDS011;5719;42.714;23.732;2023-08-06T12:30:39;2.70;;;2.15;;
11328;SDS011;5719;42.714;23.732;2023-08-06T12:33:08;3.53;;;2.30;;
11328;SDS011;5719;42.714;23.732;2023-08-06T12:35:35;2.25;;;1.92;;
11328;SDS011;5719;42.714;23.732;2023-08-06T12:38:03;7.43;;;2.30;;
11328;SDS011;5719;42.714;23.732;2023-08-06T12:40:30;2.40;;;2.17;;
11328;SDS011;5719;42.714;23.732;2023-08-06T12:42:57;2.55;;;2.35;;
11328;SDS011;5719;42.714;23.732;2023-08-06T12:45:26;2.65;;;2.45;;
11328;SDS011;5719;42.714;23.732;2023-08-06T12:47:53;8.15;;;2.42;;
11328;SDS011;5719;42.714;23.732;2023-08-06T12:50:20;6.75;;;2.95;;
11328;SDS011;5719;42.714;23.732;2023-08-06T12:52:47;2.55;;;2.35;;
11328;SDS011;5719;42.714;23.732;2023-08-06T12:55:14;4.00;;;2.35;;
11328;SDS011;5719;42.714;23.732;2023-08-06T12:57:41;4.03;;;3.00;;
11328;SDS011;5719;42.714;23.732;2023-08-06T13:00:08;4.78;;;2.70;;
11328;SDS011;5719;42.714;23.732;2023-08-06T13:02:36;3.72;;;2.65;;
11328;SDS011;5719;42.714;23.732;2023-08-06T13:05:03;2.20;;;2.10;;
11328;SDS011;5719;42.714;23.732;2023-08-06T13:07:32;5.38;;;2.40;;
11328;SDS011;5719;42.714;23.732;2023-08-06T13:09:59;3.45;;;2.60;;
11328;SDS011;5719;42.714;23.732;2023-08-06T13:12:26;5.63;;;2.95;;
11328;SDS011;5719;42.714;23.732;2023-08-06T13:14:53;3.30;;;3.00;;
11328;SDS011;5719;42.714;23.732;2023-08-06T13:17:22;4.10;;;3.30;;
11328;SDS011;5719;42.714;23.732;2023-08-06T13:19:51;5.40;;;2.97;;
11328;SDS011;5719;42.714;23.732;2023-08-06T13:22:18;4.30;;;3.05;;
11328;SDS011;5719;42.714;23.732;2023-08-06T13:24:45;4.13;;;3.20;;
11328;SDS011;5719;42.714;23.732;2023-08-06T13:27:12;4.07;;;3.10;;
11328;SDS011;5719;42.714;23.732;2023-08-06T13:29:40;3.75;;;3.20;;
11328;SDS011;5719;42.714;23.732;2023-08-06T13:32:08;3.63;;;3.22;;
11328;SDS011;5719;42.714;23.732;2023-08-06T13:34:36;3.13;;;2.83;;
11328;SDS011;5719;42.714;23.732;2023-08-06T13:37:10;3.20;;;2.90;;
11328;SDS011;5719;42.714;23.732;2023-08-06T13:39:41;3.08;;;2.55;;
11328;SDS011;5719;42.714;23.732;2023-08-06T13:42:08;2.92;;;2.67;;
11328;SDS011;5719;42.714;23.732;2023-08-06T13:44:35;2.55;;;2.35;;
11328;SDS011;5719;42.714;23.732;2023-08-06T13:47:02;5.78;;;2.60;;
11328;SDS011;5719;42.714;23.732;2023-08-06T13:49:29;2.83;;;2.08;;
11328;SDS011;5719;42.714;23.732;2023-08-06T13:51:56;3.78;;;2.30;;
11328;SDS011;5719;42.714;23.732;2023-08-06T13:54:24;3.60;;;2.10;;
11328;SDS011;5719;42.714;23.732;2023-08-06T13:56:51;2.97;;;2.38;;
11328;SDS011;5719;42.714;23.732;2023-08-06T13:59:18;6.18;;;2.50;;
11328;SDS011;5719;42.714;23.732;2023-08-06T14:01:46;3.30;;;2.63;;
11328;SDS011;5719;42.714;23.732;2023-08-06T14:04:13;4.13;;;2.20;;
11328;SDS011;5719;42.714;23.732;2023-08-06T14:06:39;9.73;;;4.50;;
11328;SDS011;5719;42.714;23.732;2023-08-06T14:09:06;3.53;;;2.78;;
11328;SDS011;5719;42.714;23.732;2023-08-06T14:11:35;3.72;;;2.92;;
11328;SDS011;5719;42.714;23.732;2023-08-06T14:14:02;3.55;;;2.50;;
11328;SDS011;5719;42.714;23.732;2023-08-06T14:16:29;2.97;;;2.40;;
11328;SDS011;5719;42.714;23.732;2023-08-06T14:18:56;9.60;;;2.47;;
11328;SDS011;5719;42.714;23.732;2023-08-06T14:21:24;3.58;;;2.50;;
11328;SDS011;5719;42.714;23.732;2023-08-06T14:23:51;3.33;;;2.30;;
11328;SDS011;5719;42.714;23.732;2023-08-06T14:26:18;7.00;;;2.70;;
11328;SDS011;5719;42.714;23.732;2023-08-06T14:28:47;2.80;;;2.30;;
11328;SDS011;5719;42.714;23.732;2023-08-06T14:31:14;6.07;;;2.40;;
11328;SDS011;5719;42.714;23.732;2023-08-06T14:33:40;3.95;;;2.60;;
11328;SDS011;5719;42.714;23.732;2023-08-06T14:36:07;5.03;;;2.90;;
11328;SDS011;5719;42.714;23.732;2023-08-06T14:38:34;10.15;;;3.28;;
11328;SDS011;5719;42.714;23.732;2023-08-06T14:41:01;3.67;;;2.33;;
11328;SDS011;5719;42.714;23.732;2023-08-06T14:43:28;3.22;;;2.85;;
11328;SDS011;5719;42.714;23.732;2023-08-06T14:45:56;5.20;;;2.65;;
11328;SDS011;5719;42.714;23.732;2023-08-06T14:48:23;8.05;;;2.42;;
11328;SDS011;5719;42.714;23.732;2023-08-06T14:50:50;4.40;;;2.08;;
11328;SDS011;5719;42.714;23.732;2023-08-06T14:53:18;2.35;;;2.15;;
11328;SDS011;5719;42.714;23.732;2023-08-06T14:55:45;2.30;;;2.20;;
11328;SDS011;5719;42.714;23.732;2023-08-06T14:58:12;2.83;;;2.50;;
11328;SDS011;5719;42.714;23.732;2023-08-06T15:00:39;4.50;;;2.90;;
11328;SDS011;5719;42.714;23.732;2023-08-06T15:03:07;6.13;;;2.75;;
11328;SDS011;5719;42.714;23.732;2023-08-06T15:05:34;3.95;;;2.75;;
11328;SDS011;5719;42.714;23.732;2023-08-06T15:08:01;4.63;;;2.42;;
11328;SDS011;5719;42.714;23.732;2023-08-06T15:10:28;5.15;;;2.92;;
11328;SDS011;5719;42.714;23.732;2023-08-06T15:12:55;5.60;;;2.45;;
11328;SDS011;5719;42.714;23.732;2023-08-06T15:15:22;4.22;;;2.40;;
11328;SDS011;5719;42.714;23.732;2023-08-06T15:17:49;7.22;;;3.10;;
11328;SDS011;5719;42.714;23.732;2023-08-06T15:20:18;6.75;;;2.83;;
11328;SDS011;5719;42.714;23.732;2023-08-06T15:22:45;3.67;;;2.03;;
11328;SDS011;5719;42.714;23.732;2023-08-06T15:25:12;3.40;;;2.25;;
11328;SDS011;5719;42.714;23.732;2023-08-06T15:27:39;2.80;;;2.60;;
11328;SDS011;5719;42.714;23.732;2023-08-06T15:30:06;4.45;;;2.50;;
11328;SDS011;5719;42.714;23.732;2023-08-06T15:32:34;6.03;;;2.58;;
11328;SDS011;5719;42.714;23.732;2023-08-06T15:35:01;5.50;;;2.42;;
11328;SDS011;5719;42.714;23.732;2023-08-06T15:37:30;2.67;;;2.47;;
11328;SDS011;5719;42.714;23.732;2023-08-06T15:39:57;3.80;;;2.50;;
11328;SDS011;5719;42.714;23.732;2023-08-06T15:42:25;4.53;;;2.97;;
11328;SDS011;5719;42.714;23.732;2023-08-06T15:44:52;5.43;;;2.58;;